Startpagina
METAR-TAF:

METAR-TAF

Vliegvelden :

Gibraltar Airport

Gibraltar, Gibraltar

breedte: 36-09N, lengte: 005-21W, hoogte: 5 m

Actueel weer

Dit bericht is 29 minuten geleden gemaakt, om 01:50 UTC
Wind 7 kt uit het westzuidwesten
Temperatuur 13°C
Vochtigheid 88%
Druk 1024 hPa
Zicht 10 km of meer

METAR: LXGB 290150Z AUTO 25007KT 9999 // NCD 13/11 Q1024

Tijdstip: 03:19 (02:19 UTC)

Verwachting

Dit bericht is 10 uur en het 2 minuten geleden gemaakt, om 16:17 UTC
Verwachting geldig van 28 om 18 UTC tot 28 om 23 UTC
Wind 12 kt uit het westen
Zicht 10 km of meer
Weinig wolken op 4000 ft

TAF: LXGB 281617Z 2818/2823 27012KT 9999 FEW040

Waarnemingen en weersverwachtingen van meer dan 4000 vliegvelden (METAR en TAF).

De beschikbare stations zijn de gele en rode punten op de kaart.

Ga met uw muis naar het station om de naam te zien.

Klik dan om waarnemingen en weersverwachtingen te zien.

kaart wijzigen: klik op de groene knoppen met een zwart kruis om in te zoomen, op de groene knop met een streepje om uit te zoomen of op de groene pijlen voor aangrenzende kaarten.


METAR-TAF: